• Join FlightAware (Why Join?)
  • Login
  • US Flag 
11:32PM EDT


 

Airport Tracker/Info


-or-


 

Live Flight TrackerFlight Track Log ✈ UAL3787 ✈ 25-Aug-2014 ✈ KBTV - KORD

Flight Track Log - Related Links

Times and Time Zones

All times are in EDT time to prevent confusion due to time zone crossing. See the UAL3787 flight status page for this flight to view local times or setup timezone preferences in your user account.

Time Position Orientation Groundspeed Altitude Reporting Facility
EDT Latitude Longitude Course Direction KTS MPH feet Rate Location/Type
09:40PM 44.4142 -73.1908 245° Southwest 202 232 5,300  Level Boston Center
09:41PM 44.4008 -73.2817 258° West 234 269 8,100 2,700 Climbing Boston Center
09:42PM 44.3590 -73.7538 259° West  Level FlightAware Approximate
09:42PM 44.3836 -73.3922 258° West 266 306 10,900  Level Boston Center
09:43PM 44.3371 -73.9069 259° West  Level FlightAware Approximate
09:43PM 44.3642 -73.5197 258° West 338 389 11,900  Level Boston Center
09:44PM 44.3097 -74.0581 255° West  Level FlightAware Approximate
09:44PM 44.3425 -73.6628 258° West 377 434 13,800  Level Boston Center
09:45PM 44.3186 -73.8194 258° West 385 443 16,000 1,920 Climbing Boston Center
09:46PM 44.2956 -73.9681 258° West 388 447 17,800 1,560 Climbing Boston Center
09:47PM 44.2717 -74.1217 258° West 401 461 19,200 1,380 Climbing Boston Center
09:48PM 44.2478 -74.2789 258° West 410 472 20,700 1,260 Climbing Boston Center
09:49PM 44.2219 -74.4397 257° West 419 482 21,800 1,200 Climbing Boston Center
09:50PM 44.1961 -74.6036 258° West 429 494 23,200 1,320 Climbing Boston Center
09:51PM 44.1714 -74.7644 258° West 431 496 24,600 1,260 Climbing Boston Center
09:52PM 44.1444 -74.9314 257° West 432 497 25,800 1,080 Climbing Boston Center
09:53PM 44.1167 -75.0944 257° West 440 506 26,800 960 Climbing Boston Center
09:54PM 44.0894 -75.2619 257° West 443 510 27,800 960 Climbing Boston Center
09:55PM 44.0603 -75.4306 257° West 451 519 28,800 1,080 Climbing Boston Center
09:56PM 44.0267 -75.6353 257° West 453 521 30,000 960 Climbing Boston Center
09:57PM 43.9978 -75.8061 257° West 454 522 30,800 720 Climbing Boston Center
09:58PM 43.9667 -75.9781 256° West 461 531 31,500 660 Climbing Boston Center
10:00PM 43.9444 -76.1542 260° West 464 534 32,200 660 Climbing Boston Center
10:01PM 43.9297 -76.3303 263° West 464 534 32,900 660 Climbing Boston Center
10:02PM 43.9144 -76.5069 263° West 464 534 33,600 540 Climbing Boston Center
10:03PM 43.8986 -76.6786 263° West 456 525 34,000 120 Climbing Boston Center
10:04PM 43.8667 -76.9000 259° West 470 541 34,000  Level Toronto Center
10:05PM 43.8500 -77.0667 262° West 470 541 34,000  Level Toronto Center
10:07PM 43.8167 -77.4333 263° West 470 541 34,000  Level Toronto Center
10:08PM 43.8000 -77.6000 262° West 470 541 34,000  Level Toronto Center
10:09PM 43.7667 -77.7833 256° West 470 541 34,000  Level Toronto Center
10:10PM 43.7500 -77.9500 262° West 460 529 34,000  Level Toronto Center
10:11PM 43.7333 -78.1333 263° West 450 518 34,000  Level Toronto Center
10:12PM 43.7167 -78.3000 262° West 450 518 34,000  Level Toronto Center
10:13PM 43.7000 -78.4500 261° West 440 506 34,000  Level Toronto Center
10:14PM 43.6833 -78.6333 263° West 440 506 34,000  Level Toronto Center
10:15PM 43.6667 -78.8000 262° West 440 506 34,000  Level Toronto Center
10:16PM 43.6500 -78.9833 263° West 440 506 34,000  Level Toronto Center
10:17PM 43.6333 -79.1500 262° West 440 506 34,000  Level Toronto Center
10:18PM 43.6333 -79.3167 270° West 440 506 34,000  Level Toronto Center
10:19PM 43.6000 -79.4667 253° West 430 495 34,000  Level Toronto Center
10:20PM 43.6000 -79.6333 270° West 450 518 34,000  Level Toronto Center
10:21PM 43.5667 -79.8167 256° West 450 518 34,000  Level Toronto Center
10:22PM 43.5500 -79.9833 262° West 440 506 34,000  Level Toronto Center
10:23PM 43.5500 -80.1333 270° West 440 506 34,000  Level Toronto Center
10:24PM 43.5333 -80.3167 263° West 430 495 34,000  Level Toronto Center
10:25PM 43.5167 -80.4833 262° West 430 495 34,000  Level Toronto Center
10:26PM 43.5000 -80.6167 260° West 430 495 34,000  Level Toronto Center
10:27PM 43.4833 -80.7833 262° West 430 495 34,000  Level Toronto Center
10:29PM 43.4333 -81.1000 261° West 430 495 34,000  Level Toronto Center
10:30PM 43.4167 -81.2833 263° West 430 495 34,000  Level Toronto Center
10:31PM 43.4000 -81.4500 262° West 430 495 34,000  Level Toronto Center
10:32PM 43.3833 -81.6000 261° West 430 495 34,000  Level Toronto Center
10:33PM 43.3667 -81.7667 262° West 430 495 34,000  Level Toronto Center
10:34PM 43.3333 -81.9333 255° West 430 495 34,000  Level Toronto Center
10:35PM 43.3167 -82.0833 261° West 430 495 34,000  Level Toronto Center
10:36PM 43.3000 -82.2500 262° West 430 495 34,000  Level Toronto Center
10:37PM 43.2833 -82.4000 261° West 430 495 34,000  Level Toronto Center
10:38PM 43.2667 -82.5667 262° West 430 495 34,000  Level Toronto Center
10:38PM 43.2656 -82.6456 269° West 429 494 34,000  Level Cleveland Center
10:39PM 43.2239 -82.8331 253° West 429 494 34,000  Level Cleveland Center
10:40PM 43.1819 -82.9836 249° West 428 493 34,000  Level Cleveland Center
10:41PM 43.1406 -83.1353 250° West 428 493 34,000  Level Cleveland Center
10:42PM 43.0975 -83.2881 249° West 429 494 34,000  Level Cleveland Center
10:44PM 43.0556 -83.4392 249° West 429 494 34,000  Level Cleveland Center
10:45PM 43.0119 -83.5894 248° West 429 494 34,000  Level Cleveland Center
10:46PM 42.9697 -83.7406 249° West 429 494 34,000  Level Cleveland Center
10:47PM 42.9494 -83.9317 262° West 429 494 34,000 -540 Level Cleveland Center
10:48PM 42.9336 -84.0900 262° West 427 491 33,000 -960 Descending Cleveland Center
10:49PM 42.9192 -84.2481 263° West 426 490 32,100 -540 Descending Cleveland Center
10:50PM 42.9014 -84.4119 262° West 426 490 32,000 -60 Descending Cleveland Center
10:51PM 42.8856 -84.5714 262° West 426 490 32,000  Level Cleveland Center
10:52PM 42.8686 -84.7331 262° West 427 491 32,000  Level Cleveland Center
10:53PM 42.8522 -84.8958 262° West 433 498 32,000  Level Cleveland Center
10:54PM 42.8350 -85.0558 262° West 432 497 32,000 -660 Level Cleveland Center
10:55PM 42.8172 -85.2200 262° West 433 498 30,700 -1,500 Descending Cleveland Center
10:56PM 42.7981 -85.3925 261° West 455 524 29,000 -1,740 Descending Cleveland Center
10:57PM 42.7764 -85.5500 259° West 428 493 27,200 -1,860 Descending Cleveland Center
10:58PM 42.7386 -85.7664 257° West 418 481 24,800 -1,800 Descending Chicago Center
10:59PM 42.7100 -85.9206 256° West 419 482 23,100 -1,680 Descending Chicago Center
11:00PM 42.6839 -86.0692 257° West 406 467 21,400 -1,680 Descending Chicago Center
11:01PM 42.6569 -86.2114 256° West 389 448 19,700 -1,680 Descending Chicago Center
11:02PM 42.6303 -86.3475 255° West 376 433 18,000 -1,680 Descending Chicago Center
11:03PM 42.6061 -86.4817 256° West 367 422 16,400 -1,620 Descending Chicago Center
11:04PM 42.5814 -86.6106 255° West 355 409 14,700 -1,620 Descending Chicago Center
11:05PM 42.5589 -86.7375 257° West 350 403 13,200 -1,380 Descending Chicago Center
11:06PM 42.5261 -86.8544 249° West 335 386 11,900 -1,380 Descending Chicago Center
11:07PM 42.4906 -86.9844 250° West 307 353 10,400 -1,380 Descending Chicago Center
11:08PM 42.4633 -87.0786 249° West 272 313 9,200 -1,200 Descending Chicago Center
11:09PM 42.4367 -87.1744 249° West 271 312 8,000 -1,200 Descending Chicago Center
11:10PM 42.4103 -87.2700 250° West 272 313 6,800 -1,020 Descending Chicago Center
11:11PM 42.3464 -87.3156 208° Southwest 265 305 6,000 -420 Descending Chicago Center
11:12PM 42.2728 -87.3572 203° Southwest 265 305 6,000  Level Chicago Center
11:13PM 42.2022 -87.3933 201° Southwest 270 311 6,000 -300 Level Chicago Center
11:14PM 42.1267 -87.4303 200° South 270 311 5,500 -900 Descending Chicago Center
11:15PM 42.0625 -87.4739 207° Southwest 258 297 4,200 -780 Descending Chicago Center
11:16PM 42.0225 -87.5472 234° Southwest 246 283 4,000 -120 Descending Chicago Center
11:17PM 41.9897 -87.6364 244° Southwest 246 283 4,000 -480 Level Chicago Center
11:18PM 41.9847 -87.7136 265° West 205 236 3,100 -840 Descending Chicago Center
11:20PM 41.9836 -87.7822 269° West 188 216 2,300 -840 Descending Chicago Center
11:21PM 41.9842 -87.8314 271° West 129 148 1,500 -780 Descending Chicago Center
11:22PM 41.9839 -87.8828 270° West 127 146 800 -720 Descending Chicago Center